createdAt,value
2018-06-20T00:01:11.735Z,5.83
2018-06-20T00:06:15.084Z,6.07
2018-06-20T00:11:19.479Z,6.30
2018-06-20T00:16:22.660Z,4.10
2018-06-20T00:21:26.104Z,6.87
2018-06-20T00:26:29.804Z,4.57
2018-06-20T00:31:33.181Z,5.43
2018-06-20T00:36:36.632Z,4.27
2018-06-20T00:41:39.796Z,3.10
2018-06-20T00:46:43.051Z,4.27
2018-06-20T00:51:46.751Z,3.90
2018-06-20T00:56:49.732Z,3.50
2018-06-20T01:01:53.027Z,3.10
2018-06-20T01:06:56.243Z,3.33
2018-06-20T01:11:59.389Z,4.23
2018-06-20T01:17:02.828Z,5.00
2018-06-20T01:22:06.705Z,3.30
2018-06-20T01:27:09.916Z,4.13
2018-06-20T01:32:12.980Z,4.17
2018-06-20T01:37:16.106Z,4.77
2018-06-20T01:42:19.184Z,4.20
2018-06-20T01:47:22.952Z,4.30
2018-06-20T01:52:26.280Z,4.43
2018-06-20T01:57:29.499Z,4.47
2018-06-20T02:02:33.032Z,4.07
2018-06-20T02:07:36.596Z,5.70
2018-06-20T02:12:39.727Z,4.87
2018-06-20T02:17:43.204Z,5.10
2018-06-20T02:22:46.675Z,5.80
2018-06-20T02:27:49.877Z,4.70
2018-06-20T02:32:53.272Z,6.43
2018-06-20T02:37:57.054Z,4.83
2018-06-20T02:43:00.403Z,4.40
2018-06-20T02:48:03.581Z,3.97
2018-06-20T02:53:06.722Z,4.90
2018-06-20T02:58:09.730Z,5.10
2018-06-20T03:03:12.976Z,4.50
2018-06-20T03:08:16.044Z,4.17
2018-06-20T03:13:19.601Z,6.07
2018-06-20T03:18:23.277Z,5.43
2018-06-20T03:23:26.380Z,5.27
2018-06-20T03:28:29.245Z,4.87
2018-06-20T03:33:32.388Z,4.80
2018-06-20T03:38:35.940Z,4.37
2018-06-20T03:43:39.448Z,4.57
2018-06-20T03:48:42.311Z,4.43
2018-06-20T03:53:45.399Z,4.37
2018-06-20T03:58:48.265Z,5.13
2018-06-20T04:03:51.624Z,5.30
2018-06-20T04:08:54.708Z,6.37
2018-06-20T04:13:58.060Z,5.03
2018-06-20T04:19:00.945Z,4.97
2018-06-20T04:24:04.576Z,4.90
2018-06-20T04:29:07.408Z,4.80
2018-06-20T04:34:10.345Z,5.03
2018-06-20T04:39:13.512Z,3.60
2018-06-20T04:44:16.592Z,4.60
2018-06-20T04:49:19.726Z,5.70
2018-06-20T04:54:22.884Z,5.70
2018-06-20T04:59:25.748Z,5.13
2018-06-20T05:04:28.611Z,4.80
2018-06-20T05:09:31.506Z,6.10
2018-06-20T05:14:37.145Z,8.13
2018-06-20T05:19:40.389Z,5.80
2018-06-20T05:24:43.347Z,5.93
2018-06-20T05:29:46.227Z,5.20
2018-06-20T05:34:49.153Z,6.73
2018-06-20T05:39:56.196Z,5.80
2018-06-20T05:44:59.323Z,7.47
2018-06-20T05:50:02.669Z,11.43
2018-06-20T05:55:05.777Z,8.10
2018-06-20T06:00:08.651Z,8.67
2018-06-20T06:05:14.215Z,8.10
2018-06-20T06:10:18.154Z,8.77
2018-06-20T06:15:21.083Z,12.23
2018-06-20T06:20:27.768Z,11.03
2018-06-20T06:25:31.337Z,10.23
2018-06-20T06:30:34.554Z,14.17
2018-06-20T06:35:37.472Z,15.53
2018-06-20T06:40:40.707Z,15.03
2018-06-20T06:45:43.894Z,15.00
2018-06-20T06:50:46.899Z,14.40
2018-06-20T06:55:49.941Z,14.37
2018-06-20T07:00:52.792Z,19.47
2018-06-20T07:05:55.693Z,24.97
2018-06-20T07:10:58.647Z,22.43
2018-06-20T07:16:02.294Z,25.30
2018-06-20T07:21:05.218Z,22.13
2018-06-20T07:26:08.158Z,27.90
2018-06-20T07:31:11.063Z,24.07
2018-06-20T07:36:14.018Z,26.10
2018-06-20T07:41:17.148Z,24.17
2018-06-20T07:46:20.456Z,24.07
2018-06-20T07:51:23.324Z,25.60
2018-06-20T07:56:26.513Z,24.80
2018-06-20T08:01:45.968Z,22.30
2018-06-20T08:06:54.432Z,27.43
2018-06-20T08:12:03.073Z,23.83
2018-06-20T08:19:22.809Z,24.67
2018-06-20T08:24:26.549Z,22.87
2018-06-20T08:29:29.632Z,23.00
2018-06-20T08:34:32.781Z,23.17
2018-06-20T08:39:35.662Z,21.70
2018-06-20T08:44:38.566Z,19.37
2018-06-20T08:49:41.472Z,23.00
2018-06-20T08:54:44.358Z,24.80
2018-06-20T08:59:47.453Z,26.10
2018-06-20T09:04:55.952Z,19.73
2018-06-20T09:10:04.833Z,24.07
2018-06-20T09:15:13.276Z,21.70
2018-06-20T09:20:16.149Z,19.57
2018-06-20T09:25:19.305Z,20.90
2018-06-20T09:30:22.513Z,21.43
2018-06-20T09:35:25.364Z,20.53
2018-06-20T09:40:28.563Z,19.27
2018-06-20T09:45:31.449Z,17.70
2018-06-20T09:50:39.911Z,22.33
2018-06-20T09:55:42.766Z,19.37
2018-06-20T10:00:51.304Z,22.67
2018-06-20T10:05:59.587Z,20.47
2018-06-20T10:11:08.301Z,20.00
2018-06-20T10:16:11.728Z,17.63
2018-06-20T10:21:14.662Z,17.80
2018-06-20T10:26:17.529Z,18.20
2018-06-20T10:31:20.783Z,16.23
2018-06-20T10:36:23.666Z,18.40
2018-06-20T10:41:31.140Z,18.23
2018-06-20T10:46:39.551Z,21.30
2018-06-20T10:51:43.289Z,18.67
2018-06-20T10:56:52.076Z,16.17
2018-06-20T11:02:00.623Z,18.23
2018-06-20T11:07:09.025Z,18.83
2018-06-20T11:12:17.510Z,18.23
2018-06-20T11:17:20.404Z,20.50
2018-06-20T11:22:23.394Z,24.40
2018-06-20T11:27:27.928Z,22.90
2018-06-20T11:32:32.436Z,25.97
2018-06-20T11:37:40.169Z,24.93
2018-06-20T11:42:43.328Z,25.20
2018-06-20T11:47:46.741Z,24.30
2018-06-20T11:52:55.888Z,19.73
2018-06-20T11:58:04.359Z,17.27
2018-06-20T12:03:13.312Z,20.13
2018-06-20T12:08:21.709Z,20.30
2018-06-20T12:13:30.188Z,14.50
2018-06-20T12:18:38.658Z,15.33
2018-06-20T12:23:47.066Z,15.47
2018-06-20T12:29:03.776Z,14.63
2018-06-20T12:34:13.153Z,15.33
2018-06-20T12:39:15.436Z,15.40
2018-06-20T12:45:23.987Z,14.37
2018-06-20T12:50:27.717Z,15.37
2018-06-20T12:55:30.612Z,14.10
2018-06-20T13:00:33.472Z,13.10
2018-06-20T13:05:36.552Z,14.37
2018-06-20T13:10:39.526Z,13.37
2018-06-20T13:15:42.409Z,11.27
2018-06-20T13:20:45.851Z,12.27
2018-06-20T13:25:48.739Z,13.70
2018-06-20T13:30:57.679Z,17.50
2018-06-20T13:36:06.355Z,22.77
2018-06-20T13:41:14.576Z,22.73
2018-06-20T13:46:22.911Z,23.30
2018-06-20T13:51:25.772Z,28.70
2018-06-20T13:56:32.100Z,31.90
2018-06-20T14:01:35.428Z,31.47
2018-06-20T14:06:38.420Z,33.23
2018-06-20T14:11:41.713Z,35.80
2018-06-20T14:16:45.231Z,33.40
2018-06-20T14:21:48.221Z,34.90
2018-06-20T14:26:51.365Z,33.13
2018-06-20T14:31:59.915Z,38.93
2018-06-20T14:37:08.295Z,36.80
2018-06-20T14:42:16.564Z,35.00
2018-06-20T14:47:19.456Z,28.83
2018-06-20T14:52:22.373Z,27.77
2018-06-20T14:57:25.526Z,24.53
2018-06-20T15:02:28.401Z,20.63
2018-06-20T15:07:31.709Z,22.53
2018-06-20T15:12:34.731Z,22.20
2018-06-20T15:17:37.626Z,16.07
2018-06-20T15:22:47.789Z,16.57
2018-06-20T15:27:56.426Z,14.67
2018-06-20T15:33:06.046Z,17.43
2018-06-20T15:38:17.579Z,22.03
2018-06-20T15:43:20.586Z,21.97
2018-06-20T15:48:23.609Z,21.03
2018-06-20T15:53:26.711Z,18.27
2018-06-20T15:58:29.636Z,21.83
2018-06-20T16:03:38.272Z,25.47
2018-06-20T16:08:47.604Z,26.93
2018-06-20T16:13:50.485Z,29.40
2018-06-20T16:18:58.963Z,36.63
2018-06-20T16:24:07.518Z,38.50
2018-06-20T16:29:15.877Z,39.23
2018-06-20T16:34:19.605Z,37.23
2018-06-20T16:39:22.978Z,32.70
2018-06-20T16:44:25.857Z,25.80
2018-06-20T16:49:28.750Z,25.23
2018-06-20T16:54:31.922Z,20.47
2018-06-20T16:59:35.066Z,16.80
2018-06-20T17:04:37.935Z,19.00
2018-06-20T17:09:42.692Z,17.47
2018-06-20T17:14:51.416Z,17.47
2018-06-20T17:19:59.803Z,18.27
2018-06-20T17:25:08.233Z,16.17
2018-06-20T17:30:11.216Z,14.30
2018-06-20T17:35:14.866Z,14.57
2018-06-20T17:40:22.653Z,12.73
2018-06-20T17:45:26.444Z,14.57
2018-06-20T17:50:32.801Z,14.50
2018-06-20T17:55:35.906Z,14.40
2018-06-20T18:00:46.154Z,13.57
2018-06-20T18:05:54.610Z,13.90
2018-06-20T18:11:03.128Z,12.50
2018-06-20T18:16:11.437Z,13.17
2018-06-20T18:21:14.910Z,13.17
2018-06-20T18:26:17.929Z,14.90
2018-06-20T18:31:20.893Z,14.10
2018-06-20T18:36:24.253Z,13.93
2018-06-20T18:41:27.570Z,13.27
2018-06-20T18:46:30.953Z,12.27
2018-06-20T18:51:34.229Z,12.23
2018-06-20T18:56:38.295Z,12.53
2018-06-20T19:01:47.644Z,15.27
2018-06-20T19:06:57.439Z,14.37
2018-06-20T19:12:01.430Z,12.60
2018-06-20T19:17:04.863Z,15.53
2018-06-20T19:22:08.654Z,12.90
2018-06-20T19:27:12.176Z,16.13
2018-06-20T19:32:15.565Z,15.10
2018-06-20T19:37:18.950Z,14.30
2018-06-20T19:42:23.628Z,15.07
2018-06-20T19:47:27.772Z,15.33
2018-06-20T19:52:30.950Z,15.70
2018-06-20T19:57:34.107Z,14.37
2018-06-20T20:02:37.475Z,14.07
2018-06-20T20:07:40.606Z,13.20
2018-06-20T20:12:44.200Z,12.67
2018-06-20T20:17:47.716Z,15.43
2018-06-20T20:22:50.668Z,14.83
2018-06-20T20:27:53.572Z,14.70
2018-06-20T20:32:56.457Z,16.40
2018-06-20T20:37:59.416Z,12.33
2018-06-20T20:43:02.850Z,16.43
2018-06-20T20:48:06.278Z,20.80
2018-06-20T20:53:09.343Z,19.60
2018-06-20T20:58:13.372Z,19.07
2018-06-20T21:03:16.297Z,19.83
2018-06-20T21:08:19.490Z,17.40
2018-06-20T21:13:22.784Z,22.20
2018-06-20T21:18:26.485Z,23.00
2018-06-20T21:23:29.457Z,22.80
2018-06-20T21:28:32.510Z,24.80
2018-06-20T21:33:35.964Z,25.73
2018-06-20T21:38:39.381Z,26.07
2018-06-20T21:43:42.877Z,24.70
2018-06-20T21:48:45.756Z,25.30
2018-06-20T21:53:49.096Z,26.17
2018-06-20T21:58:52.025Z,25.97
2018-06-20T22:03:55.235Z,28.53
2018-06-20T22:08:59.932Z,25.30
2018-06-20T22:14:04.730Z,25.53
2018-06-20T22:19:08.821Z,27.80
2018-06-20T22:24:12.878Z,29.03
2018-06-20T22:29:17.663Z,31.50
2018-06-20T22:34:21.044Z,35.40
2018-06-20T22:39:25.398Z,38.23
2018-06-20T22:44:28.824Z,35.00
2018-06-20T22:49:32.759Z,35.17
2018-06-20T22:54:37.809Z,37.37
2018-06-20T22:59:41.268Z,29.40
2018-06-20T23:04:45.227Z,33.40
2018-06-20T23:14:46.301Z,27.00
2018-06-20T23:19:50.340Z,30.03
2018-06-20T23:24:55.201Z,29.37
2018-06-20T23:29:58.417Z,28.93
2018-06-20T23:35:04.746Z,28.37
2018-06-20T23:40:07.945Z,29.97
2018-06-20T23:45:11.284Z,29.47
2018-06-20T23:50:15.892Z,28.67
2018-06-20T23:55:20.605Z,30.67
